sensor_id;sensor_type;location;lat;lon;timestamp;P1;durP1;ratioP1;P2;durP2;ratioP2
12756;SDS011;31601;48.042;12.240;2022-07-29T00:02:22;2.33;;;2.13;;
12756;SDS011;31601;48.042;12.240;2022-07-29T00:04:48;3.33;;;2.30;;
12756;SDS011;31601;48.042;12.240;2022-07-29T00:07:15;2.00;;;1.80;;
12756;SDS011;31601;48.042;12.240;2022-07-29T00:09:41;3.30;;;2.05;;
12756;SDS011;31601;48.042;12.240;2022-07-29T00:12:07;4.47;;;2.30;;
12756;SDS011;31601;48.042;12.240;2022-07-29T00:14:35;2.50;;;1.95;;
12756;SDS011;31601;48.042;12.240;2022-07-29T00:17:02;2.88;;;1.95;;
12756;SDS011;31601;48.042;12.240;2022-07-29T00:19:28;2.10;;;1.58;;
12756;SDS011;31601;48.042;12.240;2022-07-29T00:21:55;2.13;;;1.88;;
12756;SDS011;31601;48.042;12.240;2022-07-29T00:24:21;4.72;;;2.10;;
12756;SDS011;31601;48.042;12.240;2022-07-29T00:26:48;3.20;;;2.33;;
12756;SDS011;31601;48.042;12.240;2022-07-29T00:29:14;2.17;;;1.98;;
12756;SDS011;31601;48.042;12.240;2022-07-29T00:31:42;3.00;;;1.95;;
12756;SDS011;31601;48.042;12.240;2022-07-29T00:34:09;2.42;;;2.13;;
12756;SDS011;31601;48.042;12.240;2022-07-29T00:36:55;2.67;;;2.10;;
12756;SDS011;31601;48.042;12.240;2022-07-29T00:39:21;3.63;;;2.00;;
12756;SDS011;31601;48.042;12.240;2022-07-29T00:41:48;2.42;;;1.95;;
12756;SDS011;31601;48.042;12.240;2022-07-29T00:44:14;2.42;;;2.05;;
12756;SDS011;31601;48.042;12.240;2022-07-29T00:46:42;2.42;;;2.20;;
12756;SDS011;31601;48.042;12.240;2022-07-29T00:49:09;3.33;;;1.90;;
12756;SDS011;31601;48.042;12.240;2022-07-29T00:51:35;3.53;;;2.30;;
12756;SDS011;31601;48.042;12.240;2022-07-29T00:54:03;3.03;;;2.42;;
12756;SDS011;31601;48.042;12.240;2022-07-29T00:56:31;2.30;;;2.10;;
12756;SDS011;31601;48.042;12.240;2022-07-29T00:58:59;2.85;;;2.20;;
12756;SDS011;31601;48.042;12.240;2022-07-29T01:01:26;2.30;;;2.08;;
12756;SDS011;31601;48.042;12.240;2022-07-29T01:03:54;3.75;;;2.45;;
12756;SDS011;31601;48.042;12.240;2022-07-29T01:06:21;3.05;;;2.50;;
12756;SDS011;31601;48.042;12.240;2022-07-29T01:08:49;2.80;;;2.17;;
12756;SDS011;31601;48.042;12.240;2022-07-29T01:11:16;3.05;;;2.05;;
12756;SDS011;31601;48.042;12.240;2022-07-29T01:13:44;3.47;;;2.33;;
12756;SDS011;31601;48.042;12.240;2022-07-29T01:16:15;2.28;;;2.05;;
12756;SDS011;31601;48.042;12.240;2022-07-29T01:18:47;4.25;;;2.13;;
12756;SDS011;31601;48.042;12.240;2022-07-29T01:21:37;3.00;;;2.35;;
12756;SDS011;31601;48.042;12.240;2022-07-29T01:27:22;4.43;;;2.10;;
12756;SDS011;31601;48.042;12.240;2022-07-29T01:30:06;2.63;;;2.22;;
12756;SDS011;31601;48.042;12.240;2022-07-29T01:32:34;3.88;;;2.50;;
12756;SDS011;31601;48.042;12.240;2022-07-29T01:35:03;2.83;;;2.53;;
12756;SDS011;31601;48.042;12.240;2022-07-29T01:37:33;2.45;;;2.25;;
12756;SDS011;31601;48.042;12.240;2022-07-29T01:40:11;4.13;;;2.10;;
12756;SDS011;31601;48.042;12.240;2022-07-29T01:42:42;2.53;;;2.28;;
12756;SDS011;31601;48.042;12.240;2022-07-29T01:45:12;3.75;;;2.17;;
12756;SDS011;31601;48.042;12.240;2022-07-29T01:47:43;3.28;;;2.35;;
12756;SDS011;31601;48.042;12.240;2022-07-29T01:50:16;4.70;;;2.33;;
12756;SDS011;31601;48.042;12.240;2022-07-29T01:52:46;2.40;;;2.20;;
12756;SDS011;31601;48.042;12.240;2022-07-29T01:55:18;4.32;;;2.35;;
12756;SDS011;31601;48.042;12.240;2022-07-29T01:57:48;3.22;;;2.58;;
12756;SDS011;31601;48.042;12.240;2022-07-29T02:00:16;3.22;;;2.22;;
12756;SDS011;31601;48.042;12.240;2022-07-29T02:02:44;4.88;;;2.42;;
12756;SDS011;31601;48.042;12.240;2022-07-29T02:05:14;2.70;;;2.45;;
12756;SDS011;31601;48.042;12.240;2022-07-29T02:07:44;3.30;;;2.50;;
12756;SDS011;31601;48.042;12.240;2022-07-29T02:10:13;2.67;;;2.47;;
12756;SDS011;31601;48.042;12.240;2022-07-29T02:12:41;2.85;;;2.50;;
12756;SDS011;31601;48.042;12.240;2022-07-29T02:15:09;3.03;;;2.72;;
12756;SDS011;31601;48.042;12.240;2022-07-29T02:17:41;3.92;;;2.40;;
12756;SDS011;31601;48.042;12.240;2022-07-29T02:20:10;3.55;;;2.10;;
12756;SDS011;31601;48.042;12.240;2022-07-29T02:22:39;2.38;;;2.17;;
12756;SDS011;31601;48.042;12.240;2022-07-29T02:25:07;5.68;;;2.45;;
12756;SDS011;31601;48.042;12.240;2022-07-29T02:27:35;5.32;;;2.78;;
12756;SDS011;31601;48.042;12.240;2022-07-29T02:30:04;2.83;;;2.42;;
12756;SDS011;31601;48.042;12.240;2022-07-29T02:32:34;6.05;;;2.88;;
12756;SDS011;31601;48.042;12.240;2022-07-29T02:35:05;2.60;;;2.38;;
12756;SDS011;31601;48.042;12.240;2022-07-29T02:37:33;2.47;;;2.28;;
12756;SDS011;31601;48.042;12.240;2022-07-29T02:40:02;2.45;;;2.25;;
12756;SDS011;31601;48.042;12.240;2022-07-29T02:42:30;2.70;;;2.33;;
12756;SDS011;31601;48.042;12.240;2022-07-29T02:44:59;2.60;;;2.40;;
12756;SDS011;31601;48.042;12.240;2022-07-29T02:47:27;5.50;;;2.58;;
12756;SDS011;31601;48.042;12.240;2022-07-29T02:50:00;2.50;;;2.20;;
12756;SDS011;31601;48.042;12.240;2022-07-29T02:52:35;3.13;;;2.67;;
12756;SDS011;31601;48.042;12.240;2022-07-29T02:55:07;3.42;;;2.47;;
12756;SDS011;31601;48.042;12.240;2022-07-29T02:57:41;2.65;;;2.45;;
12756;SDS011;31601;48.042;12.240;2022-07-29T03:00:10;3.17;;;2.40;;
12756;SDS011;31601;48.042;12.240;2022-07-29T03:02:39;3.58;;;2.47;;
12756;SDS011;31601;48.042;12.240;2022-07-29T03:05:08;4.43;;;2.65;;
12756;SDS011;31601;48.042;12.240;2022-07-29T03:07:40;3.75;;;2.20;;
12756;SDS011;31601;48.042;12.240;2022-07-29T03:10:11;3.00;;;2.45;;
12756;SDS011;31601;48.042;12.240;2022-07-29T03:12:39;5.43;;;2.55;;
12756;SDS011;31601;48.042;12.240;2022-07-29T03:15:06;4.80;;;2.80;;
12756;SDS011;31601;48.042;12.240;2022-07-29T03:17:34;3.05;;;2.45;;
12756;SDS011;31601;48.042;12.240;2022-07-29T03:20:01;4.05;;;2.90;;
12756;SDS011;31601;48.042;12.240;2022-07-29T03:22:28;4.30;;;2.97;;
12756;SDS011;31601;48.042;12.240;2022-07-29T03:24:56;3.00;;;2.78;;
12756;SDS011;31601;48.042;12.240;2022-07-29T03:27:23;2.90;;;2.60;;
12756;SDS011;31601;48.042;12.240;2022-07-29T03:29:49;2.45;;;2.25;;
12756;SDS011;31601;48.042;12.240;2022-07-29T03:32:16;4.40;;;2.70;;
12756;SDS011;31601;48.042;12.240;2022-07-29T03:34:42;3.53;;;2.60;;
12756;SDS011;31601;48.042;12.240;2022-07-29T03:37:09;3.08;;;2.78;;
12756;SDS011;31601;48.042;12.240;2022-07-29T03:39:37;2.70;;;2.50;;
12756;SDS011;31601;48.042;12.240;2022-07-29T03:42:08;3.28;;;2.88;;
12756;SDS011;31601;48.042;12.240;2022-07-29T03:44:38;4.38;;;2.78;;
12756;SDS011;31601;48.042;12.240;2022-07-29T03:47:07;3.67;;;2.85;;
12756;SDS011;31601;48.042;12.240;2022-07-29T03:49:37;3.55;;;2.80;;
12756;SDS011;31601;48.042;12.240;2022-07-29T03:52:05;3.88;;;2.92;;
12756;SDS011;31601;48.042;12.240;2022-07-29T03:54:32;5.00;;;2.97;;
12756;SDS011;31601;48.042;12.240;2022-07-29T03:56:58;3.15;;;2.70;;
12756;SDS011;31601;48.042;12.240;2022-07-29T03:59:28;4.07;;;2.63;;
12756;SDS011;31601;48.042;12.240;2022-07-29T04:01:58;4.30;;;2.67;;
12756;SDS011;31601;48.042;12.240;2022-07-29T04:04:26;3.73;;;2.70;;
12756;SDS011;31601;48.042;12.240;2022-07-29T04:06:52;3.53;;;3.03;;
12756;SDS011;31601;48.042;12.240;2022-07-29T04:09:19;4.37;;;3.30;;
12756;SDS011;31601;48.042;12.240;2022-07-29T04:11:45;3.33;;;2.60;;
12756;SDS011;31601;48.042;12.240;2022-07-29T04:14:12;3.50;;;3.20;;
12756;SDS011;31601;48.042;12.240;2022-07-29T04:16:39;5.07;;;3.10;;
12756;SDS011;31601;48.042;12.240;2022-07-29T04:19:06;3.23;;;2.93;;
12756;SDS011;31601;48.042;12.240;2022-07-29T04:21:36;3.57;;;3.27;;
12756;SDS011;31601;48.042;12.240;2022-07-29T04:24:03;5.57;;;3.80;;
12756;SDS011;31601;48.042;12.240;2022-07-29T04:26:30;3.50;;;3.20;;
12756;SDS011;31601;48.042;12.240;2022-07-29T04:28:56;5.00;;;3.27;;
12756;SDS011;31601;48.042;12.240;2022-07-29T04:31:23;7.87;;;3.33;;
12756;SDS011;31601;48.042;12.240;2022-07-29T04:33:51;4.53;;;3.50;;
12756;SDS011;31601;48.042;12.240;2022-07-29T04:36:17;5.00;;;3.80;;
12756;SDS011;31601;48.042;12.240;2022-07-29T04:38:44;5.75;;;3.20;;
12756;SDS011;31601;48.042;12.240;2022-07-29T04:41:10;6.33;;;3.73;;
12756;SDS011;31601;48.042;12.240;2022-07-29T04:43:37;4.60;;;3.15;;
12756;SDS011;31601;48.042;12.240;2022-07-29T04:46:03;5.80;;;3.28;;
12756;SDS011;31601;48.042;12.240;2022-07-29T04:48:32;6.20;;;3.10;;
12756;SDS011;31601;48.042;12.240;2022-07-29T04:51:00;3.13;;;2.70;;
12756;SDS011;31601;48.042;12.240;2022-07-29T04:53:26;4.00;;;3.30;;
12756;SDS011;31601;48.042;12.240;2022-07-29T04:55:53;3.92;;;3.30;;
12756;SDS011;31601;48.042;12.240;2022-07-29T04:58:19;4.50;;;2.80;;
12756;SDS011;31601;48.042;12.240;2022-07-29T05:00:48;3.85;;;2.78;;
12756;SDS011;31601;48.042;12.240;2022-07-29T05:03:14;4.53;;;3.00;;
12756;SDS011;31601;48.042;12.240;2022-07-29T05:05:41;5.38;;;3.17;;
12756;SDS011;31601;48.042;12.240;2022-07-29T05:08:09;5.03;;;3.00;;
12756;SDS011;31601;48.042;12.240;2022-07-29T05:10:35;5.60;;;3.00;;
12756;SDS011;31601;48.042;12.240;2022-07-29T05:13:03;3.28;;;2.95;;
12756;SDS011;31601;48.042;12.240;2022-07-29T05:15:30;3.20;;;2.90;;
12756;SDS011;31601;48.042;12.240;2022-07-29T05:17:56;4.35;;;2.90;;
12756;SDS011;31601;48.042;12.240;2022-07-29T05:20:22;4.43;;;2.83;;
12756;SDS011;31601;48.042;12.240;2022-07-29T05:22:53;4.28;;;2.80;;
12756;SDS011;31601;48.042;12.240;2022-07-29T05:25:21;11.25;;;3.00;;
12756;SDS011;31601;48.042;12.240;2022-07-29T05:27:47;4.90;;;2.80;;
12756;SDS011;31601;48.042;12.240;2022-07-29T05:30:14;5.45;;;2.90;;
12756;SDS011;31601;48.042;12.240;2022-07-29T05:32:40;3.20;;;2.85;;
12756;SDS011;31601;48.042;12.240;2022-07-29T05:35:07;3.10;;;2.60;;
12756;SDS011;31601;48.042;12.240;2022-07-29T05:37:34;6.72;;;3.47;;
12756;SDS011;31601;48.042;12.240;2022-07-29T05:40:01;6.28;;;3.88;;
12756;SDS011;31601;48.042;12.240;2022-07-29T05:42:29;4.78;;;3.30;;
12756;SDS011;31601;48.042;12.240;2022-07-29T05:44:55;4.75;;;3.13;;
12756;SDS011;31601;48.042;12.240;2022-07-29T05:47:22;3.70;;;3.08;;
12756;SDS011;31601;48.042;12.240;2022-07-29T05:49:49;4.47;;;2.97;;
12756;SDS011;31601;48.042;12.240;2022-07-29T05:52:16;4.03;;;3.13;;
12756;SDS011;31601;48.042;12.240;2022-07-29T05:54:43;4.72;;;2.92;;
12756;SDS011;31601;48.042;12.240;2022-07-29T05:57:15;5.95;;;3.40;;
12756;SDS011;31601;48.042;12.240;2022-07-29T05:59:43;4.55;;;3.05;;
12756;SDS011;31601;48.042;12.240;2022-07-29T06:02:10;5.63;;;2.92;;
12756;SDS011;31601;48.042;12.240;2022-07-29T06:04:36;4.78;;;2.70;;
12756;SDS011;31601;48.042;12.240;2022-07-29T06:07:03;3.42;;;3.05;;
12756;SDS011;31601;48.042;12.240;2022-07-29T06:09:29;7.40;;;3.13;;
12756;SDS011;31601;48.042;12.240;2022-07-29T06:11:56;4.50;;;3.00;;
12756;SDS011;31601;48.042;12.240;2022-07-29T06:14:22;3.95;;;2.80;;
12756;SDS011;31601;48.042;12.240;2022-07-29T06:16:50;3.20;;;2.88;;
12756;SDS011;31601;48.042;12.240;2022-07-29T06:19:18;4.53;;;3.30;;
12756;SDS011;31601;48.042;12.240;2022-07-29T06:21:45;4.13;;;3.30;;
12756;SDS011;31601;48.042;12.240;2022-07-29T06:24:13;6.18;;;3.50;;
12756;SDS011;31601;48.042;12.240;2022-07-29T06:26:40;5.22;;;3.60;;
12756;SDS011;31601;48.042;12.240;2022-07-29T06:29:07;5.05;;;3.33;;
12756;SDS011;31601;48.042;12.240;2022-07-29T06:31:35;3.60;;;3.30;;
12756;SDS011;31601;48.042;12.240;2022-07-29T06:34:03;4.80;;;3.30;;
12756;SDS011;31601;48.042;12.240;2022-07-29T06:36:30;8.68;;;3.25;;
12756;SDS011;31601;48.042;12.240;2022-07-29T06:39:00;3.58;;;3.28;;
12756;SDS011;31601;48.042;12.240;2022-07-29T06:41:26;3.63;;;3.20;;
12756;SDS011;31601;48.042;12.240;2022-07-29T06:43:53;5.50;;;3.13;;
12756;SDS011;31601;48.042;12.240;2022-07-29T06:46:19;3.90;;;2.72;;
12756;SDS011;31601;48.042;12.240;2022-07-29T06:48:47;3.47;;;2.75;;
12756;SDS011;31601;48.042;12.240;2022-07-29T06:51:15;3.65;;;2.28;;
12756;SDS011;31601;48.042;12.240;2022-07-29T06:53:42;2.63;;;2.13;;
12756;SDS011;31601;48.042;12.240;2022-07-29T06:56:08;2.30;;;1.90;;
12756;SDS011;31601;48.042;12.240;2022-07-29T06:58:37;3.20;;;1.75;;
12756;SDS011;31601;48.042;12.240;2022-07-29T07:01:04;2.45;;;1.95;;
12756;SDS011;31601;48.042;12.240;2022-07-29T07:03:32;5.50;;;2.63;;
12756;SDS011;31601;48.042;12.240;2022-07-29T07:05:58;3.03;;;1.80;;
12756;SDS011;31601;48.042;12.240;2022-07-29T07:08:26;2.85;;;2.28;;
12756;SDS011;31601;48.042;12.240;2022-07-29T07:10:53;4.18;;;1.98;;
12756;SDS011;31601;48.042;12.240;2022-07-29T07:13:20;3.67;;;2.13;;
12756;SDS011;31601;48.042;12.240;2022-07-29T07:15:46;3.03;;;2.03;;
12756;SDS011;31601;48.042;12.240;2022-07-29T07:18:13;3.60;;;1.80;;
12756;SDS011;31601;48.042;12.240;2022-07-29T07:20:40;1.92;;;1.75;;
12756;SDS011;31601;48.042;12.240;2022-07-29T07:23:07;2.28;;;1.90;;
12756;SDS011;31601;48.042;12.240;2022-07-29T07:25:35;3.38;;;1.80;;
12756;SDS011;31601;48.042;12.240;2022-07-29T07:28:01;4.65;;;1.88;;
12756;SDS011;31601;48.042;12.240;2022-07-29T07:30:28;4.15;;;1.90;;
12756;SDS011;31601;48.042;12.240;2022-07-29T07:32:55;4.20;;;2.30;;
12756;SDS011;31601;48.042;12.240;2022-07-29T07:35:22;2.88;;;1.77;;
12756;SDS011;31601;48.042;12.240;2022-07-29T07:37:49;4.25;;;1.55;;
12756;SDS011;31601;48.042;12.240;2022-07-29T07:40:15;1.60;;;1.48;;
12756;SDS011;31601;48.042;12.240;2022-07-29T07:42:43;4.28;;;1.80;;
12756;SDS011;31601;48.042;12.240;2022-07-29T07:45:10;2.22;;;1.75;;
12756;SDS011;31601;48.042;12.240;2022-07-29T07:47:37;2.97;;;1.60;;
12756;SDS011;31601;48.042;12.240;2022-07-29T07:50:05;2.25;;;1.67;;
12756;SDS011;31601;48.042;12.240;2022-07-29T07:52:33;3.97;;;1.60;;
12756;SDS011;31601;48.042;12.240;2022-07-29T07:55:00;5.47;;;1.95;;
12756;SDS011;31601;48.042;12.240;2022-07-29T07:57:27;3.53;;;1.55;;
12756;SDS011;31601;48.042;12.240;2022-07-29T07:59:54;1.67;;;1.50;;
12756;SDS011;31601;48.042;12.240;2022-07-29T08:02:21;1.85;;;1.60;;
12756;SDS011;31601;48.042;12.240;2022-07-29T08:04:47;3.35;;;1.60;;
12756;SDS011;31601;48.042;12.240;2022-07-29T08:07:14;2.72;;;1.70;;
12756;SDS011;31601;48.042;12.240;2022-07-29T08:09:40;1.90;;;1.63;;
12756;SDS011;31601;48.042;12.240;2022-07-29T08:12:07;1.83;;;1.60;;
12756;SDS011;31601;48.042;12.240;2022-07-29T08:14:33;3.25;;;1.50;;
12756;SDS011;31601;48.042;12.240;2022-07-29T08:17:01;2.97;;;1.63;;
12756;SDS011;31601;48.042;12.240;2022-07-29T08:19:27;2.03;;;1.67;;
12756;SDS011;31601;48.042;12.240;2022-07-29T08:21:54;1.75;;;1.60;;
12756;SDS011;31601;48.042;12.240;2022-07-29T08:24:21;2.53;;;1.80;;
12756;SDS011;31601;48.042;12.240;2022-07-29T08:27:05;2.63;;;1.80;;
12756;SDS011;31601;48.042;12.240;2022-07-29T08:29:31;2.80;;;1.50;;
12756;SDS011;31601;48.042;12.240;2022-07-29T08:31:58;1.80;;;1.50;;
12756;SDS011;31601;48.042;12.240;2022-07-29T08:34:26;2.42;;;1.90;;
12756;SDS011;31601;48.042;12.240;2022-07-29T08:36:53;2.00;;;1.80;;
12756;SDS011;31601;48.042;12.240;2022-07-29T08:39:20;3.45;;;1.60;;
12756;SDS011;31601;48.042;12.240;2022-07-29T08:41:46;8.05;;;2.17;;
12756;SDS011;31601;48.042;12.240;2022-07-29T08:44:13;2.10;;;1.85;;
12756;SDS011;31601;48.042;12.240;2022-07-29T08:46:41;4.05;;;1.77;;
12756;SDS011;31601;48.042;12.240;2022-07-29T08:49:08;1.73;;;1.58;;
12756;SDS011;31601;48.042;12.240;2022-07-29T08:51:36;1.75;;;1.63;;
12756;SDS011;31601;48.042;12.240;2022-07-29T08:54:05;1.73;;;1.63;;
12756;SDS011;31601;48.042;12.240;2022-07-29T08:56:32;1.92;;;1.58;;
12756;SDS011;31601;48.042;12.240;2022-07-29T08:59:02;2.65;;;1.83;;
12756;SDS011;31601;48.042;12.240;2022-07-29T09:01:29;1.83;;;1.67;;
12756;SDS011;31601;48.042;12.240;2022-07-29T09:03:59;1.92;;;1.63;;
12756;SDS011;31601;48.042;12.240;2022-07-29T09:06:29;2.13;;;1.90;;
12756;SDS011;31601;48.042;12.240;2022-07-29T09:09:01;3.47;;;1.65;;
12756;SDS011;31601;48.042;12.240;2022-07-29T09:11:29;2.63;;;1.85;;
12756;SDS011;31601;48.042;12.240;2022-07-29T09:13:58;2.45;;;1.80;;
12756;SDS011;31601;48.042;12.240;2022-07-29T09:16:24;1.55;;;1.42;;
12756;SDS011;31601;48.042;12.240;2022-07-29T09:18:51;2.85;;;1.67;;
12756;SDS011;31601;48.042;12.240;2022-07-29T09:21:17;5.57;;;1.50;;
12756;SDS011;31601;48.042;12.240;2022-07-29T09:24:03;4.20;;;1.30;;
12756;SDS011;31601;48.042;12.240;2022-07-29T09:26:33;3.85;;;1.67;;
12756;SDS011;31601;48.042;12.240;2022-07-29T09:29:07;5.47;;;1.38;;
12756;SDS011;31601;48.042;12.240;2022-07-29T09:31:37;1.90;;;1.33;;
12756;SDS011;31601;48.042;12.240;2022-07-29T09:34:05;1.40;;;1.30;;
12756;SDS011;31601;48.042;12.240;2022-07-29T09:36:41;4.15;;;1.50;;
12756;SDS011;31601;48.042;12.240;2022-07-29T09:39:09;1.33;;;1.23;;
12756;SDS011;31601;48.042;12.240;2022-07-29T09:41:43;1.40;;;1.30;;
12756;SDS011;31601;48.042;12.240;2022-07-29T09:44:11;2.08;;;1.50;;
12756;SDS011;31601;48.042;12.240;2022-07-29T09:46:38;3.03;;;1.33;;
12756;SDS011;31601;48.042;12.240;2022-07-29T09:49:07;3.17;;;1.60;;
12756;SDS011;31601;48.042;12.240;2022-07-29T09:51:34;2.40;;;1.55;;
12756;SDS011;31601;48.042;12.240;2022-07-29T09:54:01;1.92;;;1.42;;
12756;SDS011;31601;48.042;12.240;2022-07-29T09:56:40;2.00;;;1.73;;
12756;SDS011;31601;48.042;12.240;2022-07-29T09:59:08;1.67;;;1.55;;
12756;SDS011;31601;48.042;12.240;2022-07-29T10:01:36;2.00;;;1.50;;
12756;SDS011;31601;48.042;12.240;2022-07-29T10:04:03;2.17;;;1.30;;
12756;SDS011;31601;48.042;12.240;2022-07-29T10:06:30;2.10;;;1.67;;
12756;SDS011;31601;48.042;12.240;2022-07-29T10:09:06;7.97;;;1.70;;
12756;SDS011;31601;48.042;12.240;2022-07-29T10:11:34;4.63;;;1.60;;
12756;SDS011;31601;48.042;12.240;2022-07-29T10:14:02;2.58;;;1.63;;
12756;SDS011;31601;48.042;12.240;2022-07-29T10:16:29;1.50;;;1.40;;
12756;SDS011;31601;48.042;12.240;2022-07-29T10:18:58;4.07;;;1.45;;
12756;SDS011;31601;48.042;12.240;2022-07-29T10:21:26;1.77;;;1.67;;
12756;SDS011;31601;48.042;12.240;2022-07-29T10:23:53;4.55;;;1.40;;
12756;SDS011;31601;48.042;12.240;2022-07-29T10:26:20;5.40;;;1.48;;
12756;SDS011;31601;48.042;12.240;2022-07-29T10:28:46;1.85;;;1.48;;
12756;SDS011;31601;48.042;12.240;2022-07-29T10:31:15;3.42;;;1.50;;
12756;SDS011;31601;48.042;12.240;2022-07-29T10:33:51;2.60;;;1.55;;
12756;SDS011;31601;48.042;12.240;2022-07-29T10:36:32;2.65;;;1.55;;
12756;SDS011;31601;48.042;12.240;2022-07-29T10:39:12;3.45;;;1.30;;
12756;SDS011;31601;48.042;12.240;2022-07-29T10:42:02;1.75;;;1.58;;
12756;SDS011;31601;48.042;12.240;2022-07-29T10:44:39;3.25;;;1.50;;
12756;SDS011;31601;48.042;12.240;2022-07-29T10:47:08;4.35;;;1.55;;
12756;SDS011;31601;48.042;12.240;2022-07-29T10:49:54;4.25;;;1.63;;
12756;SDS011;31601;48.042;12.240;2022-07-29T10:52:21;1.60;;;1.50;;
12756;SDS011;31601;48.042;12.240;2022-07-29T10:54:49;1.13;;;1.10;;
12756;SDS011;31601;48.042;12.240;2022-07-29T10:57:24;3.42;;;1.60;;
12756;SDS011;31601;48.042;12.240;2022-07-29T11:02:53;2.97;;;1.50;;
12756;SDS011;31601;48.042;12.240;2022-07-29T11:05:21;2.55;;;1.63;;
12756;SDS011;31601;48.042;12.240;2022-07-29T11:10:50;2.00;;;1.20;;
12756;SDS011;31601;48.042;12.240;2022-07-29T11:16:18;1.50;;;1.40;;
12756;SDS011;31601;48.042;12.240;2022-07-29T11:21:48;3.90;;;1.70;;
12756;SDS011;31601;48.042;12.240;2022-07-29T11:24:17;1.70;;;1.48;;
12756;SDS011;31601;48.042;12.240;2022-07-29T11:26:45;1.33;;;1.23;;
12756;SDS011;31601;48.042;12.240;2022-07-29T11:29:32;2.95;;;1.70;;
12756;SDS011;31601;48.042;12.240;2022-07-29T11:32:07;2.42;;;1.73;;
12756;SDS011;31601;48.042;12.240;2022-07-29T11:34:36;2.67;;;1.45;;
12756;SDS011;31601;48.042;12.240;2022-07-29T11:37:15;2.13;;;1.50;;
12756;SDS011;31601;48.042;12.240;2022-07-29T11:39:47;2.38;;;1.60;;
12756;SDS011;31601;48.042;12.240;2022-07-29T11:42:37;3.50;;;1.60;;
12756;SDS011;31601;48.042;12.240;2022-07-29T11:45:06;1.52;;;1.42;;
12756;SDS011;31601;48.042;12.240;2022-07-29T11:47:35;2.53;;;1.65;;
12756;SDS011;31601;48.042;12.240;2022-07-29T11:50:05;1.85;;;1.70;;
12756;SDS011;31601;48.042;12.240;2022-07-29T11:52:35;1.55;;;1.30;;
12756;SDS011;31601;48.042;12.240;2022-07-29T11:55:08;3.60;;;1.90;;
12756;SDS011;31601;48.042;12.240;2022-07-29T11:57:36;2.17;;;1.80;;
12756;SDS011;31601;48.042;12.240;2022-07-29T12:00:03;2.35;;;1.52;;
12756;SDS011;31601;48.042;12.240;2022-07-29T12:02:39;1.70;;;1.40;;
12756;SDS011;31601;48.042;12.240;2022-07-29T12:05:09;3.22;;;1.42;;
12756;SDS011;31601;48.042;12.240;2022-07-29T12:07:36;3.03;;;1.80;;
12756;SDS011;31601;48.042;12.240;2022-07-29T12:10:04;1.55;;;1.45;;
12756;SDS011;31601;48.042;12.240;2022-07-29T12:12:32;2.13;;;1.50;;
12756;SDS011;31601;48.042;12.240;2022-07-29T12:15:09;3.05;;;1.70;;
12756;SDS011;31601;48.042;12.240;2022-07-29T12:17:36;3.30;;;1.67;;
12756;SDS011;31601;48.042;12.240;2022-07-29T12:20:04;1.77;;;1.38;;
12756;SDS011;31601;48.042;12.240;2022-07-29T12:22:33;3.67;;;1.92;;
12756;SDS011;31601;48.042;12.240;2022-07-29T12:25:03;2.55;;;1.60;;
12756;SDS011;31601;48.042;12.240;2022-07-29T12:27:32;2.63;;;1.40;;
12756;SDS011;31601;48.042;12.240;2022-07-29T12:29:59;3.33;;;1.98;;
12756;SDS011;31601;48.042;12.240;2022-07-29T12:32:30;2.28;;;1.60;;
12756;SDS011;31601;48.042;12.240;2022-07-29T12:34:58;2.83;;;1.73;;
12756;SDS011;31601;48.042;12.240;2022-07-29T12:37:25;3.15;;;1.55;;
12756;SDS011;31601;48.042;12.240;2022-07-29T12:39:53;2.08;;;1.85;;
12756;SDS011;31601;48.042;12.240;2022-07-29T12:42:19;2.15;;;1.80;;
12756;SDS011;31601;48.042;12.240;2022-07-29T12:44:46;2.67;;;1.70;;
12756;SDS011;31601;48.042;12.240;2022-07-29T12:47:14;3.25;;;1.60;;
12756;SDS011;31601;48.042;12.240;2022-07-29T12:49:40;4.05;;;2.17;;
12756;SDS011;31601;48.042;12.240;2022-07-29T12:52:23;2.75;;;1.73;;
12756;SDS011;31601;48.042;12.240;2022-07-29T12:57:17;2.80;;;1.63;;
12756;SDS011;31601;48.042;12.240;2022-07-29T13:00:00;1.90;;;1.70;;
12756;SDS011;31601;48.042;12.240;2022-07-29T13:02:29;1.98;;;1.30;;
12756;SDS011;31601;48.042;12.240;2022-07-29T13:04:56;2.70;;;1.52;;
12756;SDS011;31601;48.042;12.240;2022-07-29T13:07:24;2.17;;;1.67;;
12756;SDS011;31601;48.042;12.240;2022-07-29T13:09:54;2.30;;;1.65;;
12756;SDS011;31601;48.042;12.240;2022-07-29T13:12:28;2.15;;;1.38;;
12756;SDS011;31601;48.042;12.240;2022-07-29T13:14:55;2.72;;;1.45;;
12756;SDS011;31601;48.042;12.240;2022-07-29T13:17:22;2.38;;;1.42;;
12756;SDS011;31601;48.042;12.240;2022-07-29T13:19:50;2.47;;;1.70;;
12756;SDS011;31601;48.042;12.240;2022-07-29T13:22:18;4.13;;;1.40;;
12756;SDS011;31601;48.042;12.240;2022-07-29T13:24:47;4.47;;;1.60;;
12756;SDS011;31601;48.042;12.240;2022-07-29T13:27:14;4.03;;;1.45;;
12756;SDS011;31601;48.042;12.240;2022-07-29T13:29:41;2.63;;;1.60;;
12756;SDS011;31601;48.042;12.240;2022-07-29T13:32:07;1.98;;;1.70;;
12756;SDS011;31601;48.042;12.240;2022-07-29T13:34:35;4.85;;;1.48;;
12756;SDS011;31601;48.042;12.240;2022-07-29T13:37:01;2.85;;;1.60;;
12756;SDS011;31601;48.042;12.240;2022-07-29T13:39:28;2.63;;;1.60;;
12756;SDS011;31601;48.042;12.240;2022-07-29T13:41:55;2.40;;;1.73;;
12756;SDS011;31601;48.042;12.240;2022-07-29T13:44:21;3.22;;;1.63;;
12756;SDS011;31601;48.042;12.240;2022-07-29T13:46:48;3.67;;;1.60;;
12756;SDS011;31601;48.042;12.240;2022-07-29T13:49:14;3.28;;;1.70;;
12756;SDS011;31601;48.042;12.240;2022-07-29T13:51:42;5.80;;;1.85;;
12756;SDS011;31601;48.042;12.240;2022-07-29T13:54:09;2.38;;;1.70;;
12756;SDS011;31601;48.042;12.240;2022-07-29T13:56:35;7.20;;;1.80;;
12756;SDS011;31601;48.042;12.240;2022-07-29T13:59:02;3.35;;;1.83;;
12756;SDS011;31601;48.042;12.240;2022-07-29T14:01:28;3.50;;;1.75;;
12756;SDS011;31601;48.042;12.240;2022-07-29T14:03:55;2.90;;;1.80;;
12756;SDS011;31601;48.042;12.240;2022-07-29T14:06:21;3.00;;;1.65;;
12756;SDS011;31601;48.042;12.240;2022-07-29T14:08:49;5.95;;;2.03;;
12756;SDS011;31601;48.042;12.240;2022-07-29T14:11:15;1.75;;;1.52;;
12756;SDS011;31601;48.042;12.240;2022-07-29T14:13:42;3.47;;;1.48;;
12756;SDS011;31601;48.042;12.240;2022-07-29T14:16:08;2.90;;;1.40;;
12756;SDS011;31601;48.042;12.240;2022-07-29T14:18:34;5.63;;;1.50;;
12756;SDS011;31601;48.042;12.240;2022-07-29T14:21:01;2.45;;;1.33;;
12756;SDS011;31601;48.042;12.240;2022-07-29T14:23:28;3.45;;;1.63;;
12756;SDS011;31601;48.042;12.240;2022-07-29T14:25:56;7.32;;;2.03;;
12756;SDS011;31601;48.042;12.240;2022-07-29T14:28:22;1.77;;;1.50;;
12756;SDS011;31601;48.042;12.240;2022-07-29T14:30:49;5.60;;;1.88;;
12756;SDS011;31601;48.042;12.240;2022-07-29T14:33:15;3.03;;;1.20;;
12756;SDS011;31601;48.042;12.240;2022-07-29T14:35:42;3.95;;;1.30;;
12756;SDS011;31601;48.042;12.240;2022-07-29T14:38:08;2.97;;;1.27;;
12756;SDS011;31601;48.042;12.240;2022-07-29T14:40:35;1.33;;;1.17;;
12756;SDS011;31601;48.042;12.240;2022-07-29T14:43:03;1.77;;;1.17;;
12756;SDS011;31601;48.042;12.240;2022-07-29T14:45:30;2.13;;;1.30;;
12756;SDS011;31601;48.042;12.240;2022-07-29T14:47:56;2.13;;;1.40;;
12756;SDS011;31601;48.042;12.240;2022-07-29T14:50:23;4.80;;;1.50;;
12756;SDS011;31601;48.042;12.240;2022-07-29T14:52:51;2.70;;;1.42;;
12756;SDS011;31601;48.042;12.240;2022-07-29T14:55:17;2.58;;;1.65;;
12756;SDS011;31601;48.042;12.240;2022-07-29T14:57:44;9.15;;;1.65;;
12756;SDS011;31601;48.042;12.240;2022-07-29T15:00:12;4.47;;;1.40;;